| time (UTC) | temp C | wind direction | speed KPH | gust KPH | rain 1hr cm | rain 24hr cm | rain mn cm | humidity % | barometer mb |
| 20260507213438 | 8 | 0.0 | 0.0 | 0.00 | 0.00 | 0.00 | 63 | 1018.7 | |
| 20260507212420 | 7 | 0.0 | 0.0 | 0.00 | 0.00 | 0.00 | 64 | 1018.7 | |
| 20260507211420 | 7 | 0.0 | 0.0 | 0.00 | 0.00 | 0.00 | 63 | 1018.6 | |
| 20260507210420 | 7 | 0.0 | 0.0 | 0.00 | 0.00 | 0.00 | 62 | 1018.5 | |
| 20260507205420 | 8 | 0.0 | 0.0 | 0.00 | 0.00 | 0.00 | 62 | 1018.4 | |
| 20260507204420 | 8 | 0.0 | 0.0 | 0.00 | 0.00 | 0.00 | 62 | 1018.3 | |
| 20260507203420 | 8 | 0.0 | 0.0 | 0.00 | 0.00 | 0.00 | 63 | 1018.2 | |
| 20260507202420 | 8 | 0.0 | 0.0 | 0.00 | 0.00 | 0.00 | 61 | 1018.1 | |
| 20260507201439 | 8 | 270 | 3.2 | 3.2 | 0.00 | 0.00 | 0.00 | 58 | 1018.1 |
| 20260507200419 | 8 | 270 | 1.6 | 3.2 | 0.00 | 0.00 | 0.00 | 58 | 1018.0 |
| 20260507195419 | 8 | 0.0 | 1.6 | 0.00 | 0.00 | 0.00 | 58 | 1018.0 | |
| 20260507194419 | 8 | 270 | 1.6 | 3.2 | 0.00 | 0.00 | 0.00 | 57 | 1017.9 |
| 20260507193420 | 9 | 270 | 1.6 | 3.2 | 0.00 | 0.00 | 0.00 | 55 | 1017.9 |
| 20260507192459 | 10 | 270 | 3.2 | 3.2 | 0.00 | 0.00 | 0.00 | 54 | 1017.7 |
| 20260507191419 | 10 | 270 | 3.2 | 4.8 | 0.00 | 0.00 | 0.00 | 51 | 1017.6 |
| 20260507190419 | 10 | 270 | 4.8 | 6.4 | 0.00 | 0.00 | 0.00 | 52 | 1017.4 |
| 20260507185419 | 10 | 270 | 4.8 | 6.4 | 0.00 | 0.00 | 0.00 | 52 | 1017.3 |
| 20260507184419 | 10 | 270 | 4.8 | 6.4 | 0.00 | 0.00 | 0.00 | 49 | 1017.1 |
| 20260507183419 | 11 | 293 | 4.8 | 6.4 | 0.00 | 0.00 | 0.00 | 50 | 1017.0 |
| 20260507182419 | 11 | 270 | 3.2 | 6.4 | 0.00 | 0.00 | 0.00 | 48 | 1017.0 |
| 20260507181419 | 11 | 315 | 6.4 | 6.4 | 0.00 | 0.00 | 0.00 | 49 | 1017.0 |
| 20260507180439 | 11 | 270 | 8.0 | 8.0 | 0.00 | 0.00 | 0.00 | 46 | 1017.0 |
| 20260507175418 | 11 | 270 | 6.4 | 8.0 | 0.00 | 0.00 | 0.00 | 48 | 1016.9 |
| 20260507174439 | 11 | 293 | 8.0 | 8.0 | 0.00 | 0.00 | 0.00 | 47 | 1016.9 |
| 20260507173419 | 11 | 293 | 9.7 | 11.3 | 0.00 | 0.00 | 0.00 | 44 | 1016.9 |
| 20260507172419 | 11 | 293 | 11.3 | 12.9 | 0.00 | 0.00 | 0.00 | 46 | 1016.9 |
| 20260507171418 | 11 | 293 | 11.3 | 14.5 | 0.00 | 0.00 | 0.00 | 46 | 1016.9 |
| 20260507170418 | 11 | 293 | 12.9 | 16.1 | 0.00 | 0.00 | 0.00 | 45 | 1016.9 |
| 20260507165418 | 12 | 270 | 11.3 | 16.1 | 0.00 | 0.00 | 0.00 | 44 | 1016.8 |
| 20260507164418 | 12 | 293 | 12.9 | 16.1 | 0.00 | 0.00 | 0.00 | 44 | 1016.8 |
| 20260507163418 | 12 | 293 | 14.5 | 19.3 | 0.00 | 0.00 | 0.00 | 43 | 1016.7 |
| 20260507162418 | 13 | 293 | 14.5 | 17.7 | 0.00 | 0.00 | 0.00 | 38 | 1016.7 |
| 20260507161418 | 13 | 315 | 14.5 | 17.7 | 0.00 | 0.00 | 0.00 | 40 | 1016.7 |
| 20260507160418 | 13 | 293 | 14.5 | 16.1 | 0.00 | 0.00 | 0.00 | 35 | 1016.7 |
| 20260507155418 | 13 | 293 | 12.9 | 16.1 | 0.00 | 0.00 | 0.00 | 37 | 1016.7 |
| 20260507154418 | 13 | 293 | 9.7 | 14.5 | 0.00 | 0.00 | 0.00 | 38 | 1016.7 |
| 20260507153418 | 14 | 315 | 16.1 | 17.7 | 0.00 | 0.00 | 0.00 | 38 | 1016.7 |
| 20260507152420 | 14 | 270 | 11.3 | 14.5 | 0.00 | 0.00 | 0.00 | 38 | 1016.6 |
| 20260507151420 | 15 | 315 | 12.9 | 17.7 | 0.00 | 0.00 | 0.00 | 37 | 1016.7 |
| 20260507150439 | 15 | 315 | 12.9 | 17.7 | 0.00 | 0.00 | 0.00 | 38 | 1016.6 |
| 20260507145420 | 15 | 293 | 11.3 | 16.1 | 0.00 | 0.00 | 0.00 | 36 | 1016.6 |
| 20260507144420 | 14 | 270 | 12.9 | 17.7 | 0.00 | 0.00 | 0.00 | 36 | 1016.6 |
| 20260507143420 | 15 | 293 | 16.1 | 17.7 | 0.00 | 0.00 | 0.00 | 36 | 1016.5 |
| 20260507142419 | 16 | 293 | 12.9 | 17.7 | 0.00 | 0.00 | 0.00 | 34 | 1016.5 |
| 20260507141419 | 17 | 315 | 16.1 | 17.7 | 0.00 | 0.00 | 0.00 | 28 | 1016.5 |
| 20260507140419 | 17 | 315 | 12.9 | 16.1 | 0.00 | 0.00 | 0.00 | 27 | 1016.5 |
| 20260507135420 | 17 | 315 | 12.9 | 16.1 | 0.00 | 0.00 | 0.00 | 25 | 1016.6 |
| 20260507134419 | 17 | 315 | 16.1 | 19.3 | 0.00 | 0.00 | 0.00 | 29 | 1016.6 |
| 20260507133420 | 18 | 315 | 17.7 | 22.5 | 0.00 | 0.00 | 0.00 | 27 | 1016.6 |
| 20260507132419 | 18 | 315 | 16.1 | 17.7 | 0.00 | 0.00 | 0.00 | 27 | 1016.6 |
| 20260507131419 | 17 | 315 | 17.7 | 19.3 | 0.00 | 0.00 | 0.00 | 28 | 1016.6 |
| 20260507130419 | 17 | 338 | 20.9 | 22.5 | 0.00 | 0.00 | 0.00 | 27 | 1016.5 |
| 20260507125439 | 17 | 315 | 20.9 | 22.5 | 0.00 | 0.00 | 0.00 | 26 | 1016.6 |
| 20260507124419 | 17 | 0 | 17.7 | 22.5 | 0.00 | 0.00 | 0.00 | 27 | 1016.5 |
| 20260507123419 | 17 | 315 | 20.9 | 24.1 | 0.00 | 0.00 | 0.00 | 28 | 1016.4 |
| 20260507122419 | 17 | 315 | 19.3 | 22.5 | 0.00 | 0.00 | 0.00 | 30 | 1016.4 |
| 20260507121419 | 17 | 315 | 20.9 | 24.1 | 0.00 | 0.00 | 0.00 | 29 | 1016.4 |
| 20260507120419 | 17 | 315 | 19.3 | 22.5 | 0.00 | 0.00 | 0.00 | 32 | 1016.4 |
| 20260507115419 | 17 | 315 | 16.1 | 19.3 | 0.00 | 0.00 | 0.00 | 29 | 1016.3 |
| 20260507114419 | 17 | 315 | 17.7 | 20.9 | 0.00 | 0.00 | 0.00 | 30 | 1016.2 |
| 20260507113439 | 17 | 315 | 19.3 | 22.5 | 0.00 | 0.00 | 0.00 | 30 | 1016.2 |
| 20260507112419 | 18 | 315 | 17.7 | 19.3 | 0.00 | 0.00 | 0.00 | 29 | 1016.2 |
| 20260507111418 | 18 | 315 | 19.3 | 20.9 | 0.00 | 0.00 | 0.00 | 32 | 1016.1 |
| 20260507110418 | 18 | 338 | 19.3 | 25.7 | 0.00 | 0.00 | 0.00 | 30 | 1016.1 |
| 20260507105419 | 18 | 315 | 16.1 | 19.3 | 0.00 | 0.00 | 0.00 | 33 | 1016.1 |
| 20260507104419 | 17 | 338 | 16.1 | 20.9 | 0.00 | 0.00 | 0.00 | 35 | 1016.0 |
| 20260507103418 | 17 | 338 | 16.1 | 19.3 | 0.00 | 0.00 | 0.00 | 36 | 1016.0 |
| 20260507102418 | 17 | 315 | 14.5 | 19.3 | 0.00 | 0.00 | 0.00 | 37 | 1015.9 |
| 20260507101418 | 17 | 315 | 17.7 | 20.9 | 0.00 | 0.00 | 0.00 | 36 | 1015.9 |
| 20260507100418 | 17 | 338 | 16.1 | 19.3 | 0.00 | 0.00 | 0.00 | 36 | 1015.7 |
| 20260507095418 | 17 | 338 | 17.7 | 19.3 | 0.00 | 0.00 | 0.00 | 37 | 1015.5 |
| 20260507094418 | 17 | 315 | 16.1 | 19.3 | 0.00 | 0.00 | 0.00 | 37 | 1015.5 |
| 20260507093438 | 17 | 338 | 17.7 | 20.9 | 0.00 | 0.00 | 0.00 | 35 | 1015.4 |
| 20260507092440 | 16 | 315 | 14.5 | 17.7 | 0.00 | 0.00 | 0.00 | 37 | 1015.4 |
| 20260507091438 | 16 | 338 | 11.3 | 14.5 | 0.00 | 0.00 | 0.00 | 36 | 1015.3 |
| 20260507090420 | 16 | 315 | 12.9 | 16.1 | 0.00 | 0.00 | 0.00 | 37 | 1015.3 |
| 20260507085420 | 15 | 315 | 12.9 | 16.1 | 0.00 | 0.00 | 0.00 | 39 | 1015.2 |
| 20260507084420 | 15 | 315 | 8.0 | 9.7 | 0.00 | 0.00 | 0.00 | 40 | 1015.1 |
| 20260507083440 | 15 | 270 | 6.4 | 12.9 | 0.00 | 0.00 | 0.00 | 38 | 1015.1 |
| 20260507082500 | 15 | 293 | 8.0 | 11.3 | 0.00 | 0.00 | 0.00 | 38 | 1015.1 |
| 20260507081420 | 14 | 315 | 6.4 | 11.3 | 0.00 | 0.00 | 0.00 | 37 | 1014.9 |
| 20260507080419 | 13 | 315 | 9.7 | 11.3 | 0.00 | 0.00 | 0.00 | 39 | 1014.9 |
| 20260507075419 | 13 | 315 | 8.0 | 9.7 | 0.00 | 0.00 | 0.00 | 41 | 1014.8 |
| 20260507074420 | 12 | 315 | 12.9 | 14.5 | 0.00 | 0.00 | 0.00 | 43 | 1014.7 |
| 20260507073419 | 12 | 315 | 8.0 | 11.3 | 0.00 | 0.00 | 0.00 | 44 | 1014.6 |
| 20260507072419 | 12 | 315 | 9.7 | 11.3 | 0.00 | 0.00 | 0.00 | 46 | 1014.6 |
| 20260507071440 | 11 | 0 | 6.4 | 8.0 | 0.00 | 0.00 | 0.00 | 47 | 1014.6 |
| 20260507070419 | 11 | 338 | 8.0 | 9.7 | 0.00 | 0.00 | 0.00 | 49 | 1014.5 |
| 20260507065439 | 10 | 0 | 9.7 | 11.3 | 0.00 | 0.00 | 0.00 | 50 | 1014.5 |
| 20260507064419 | 10 | 315 | 9.7 | 11.3 | 0.00 | 0.00 | 0.00 | 53 | 1014.5 |
| 20260507063419 | 8 | 338 | 8.0 | 9.7 | 0.00 | 0.00 | 0.00 | 56 | 1014.3 |
| 20260507062419 | 8 | 338 | 8.0 | 9.7 | 0.00 | 0.00 | 0.00 | 58 | 1014.2 |
| 20260507061419 | 7 | 0 | 6.4 | 8.0 | 0.00 | 0.00 | 0.00 | 60 | 1014.2 |
| 20260507060419 | 7 | 0 | 8.0 | 9.7 | 0.00 | 0.00 | 0.00 | 60 | 1014.1 |
| 20260507055439 | 7 | 0 | 8.0 | 9.7 | 0.00 | 0.00 | 0.00 | 60 | 1014.0 |
| 20260507054418 | 7 | 68 | 3.2 | 4.8 | 0.00 | 0.00 | 0.00 | 65 | 1014.0 |
| 20260507053419 | 6 | 0 | 8.0 | 11.3 | 0.00 | 0.00 | 0.00 | 66 | 1013.9 |
| 20260507052418 | 6 | 68 | 3.2 | 8.0 | 0.00 | 0.00 | 0.00 | 69 | 1013.8 |
| 20260507051439 | 6 | 23 | 4.8 | 8.0 | 0.00 | 0.00 | 0.00 | 70 | 1013.7 |
| 20260507050438 | 6 | 45 | 3.2 | 6.4 | 0.00 | 0.00 | 0.00 | 73 | 1013.6 |
| 20260507045419 | 6 | 0 | 4.8 | 6.4 | 0.00 | 0.00 | 0.00 | 74 | 1013.6 |
| 20260507044418 | 6 | 338 | 6.4 | 9.7 | 0.00 | 0.00 | 0.00 | 75 | 1013.5 |
| 20260507043418 | 6 | 0.0 | 0.0 | 0.00 | 0.00 | 0.00 | 76 | 1013.4 | |
| 20260507042418 | 6 | 0.0 | 0.0 | 0.00 | 0.00 | 0.00 | 77 | 1013.2 | |
| 20260507041419 | 5 | 0.0 | 0.0 | 0.00 | 0.00 | 0.00 | 77 | 1013.2 | |
| 20260507040418 | 5 | 0.0 | 0.0 | 0.00 | 0.00 | 0.00 | 77 | 1013.0 | |
| 20260507035418 | 5 | 45 | 3.2 | 4.8 | 0.00 | 0.00 | 0.00 | 78 | 1012.9 |
| 20260507034438 | 5 | 45 | 3.2 | 4.8 | 0.00 | 0.00 | 0.00 | 78 | 1012.8 |
| 20260507033440 | 4 | 45 | 3.2 | 3.2 | 0.00 | 0.00 | 0.00 | 78 | 1012.8 |
| 20260507032419 | 4 | 45 | 4.8 | 6.4 | 0.00 | 0.00 | 0.00 | 78 | 1012.7 |
| 20260507031420 | 4 | 23 | 1.6 | 4.8 | 0.00 | 0.00 | 0.00 | 78 | 1012.7 |
| 20260507030420 | 4 | 0 | 1.6 | 4.8 | 0.00 | 0.00 | 0.00 | 78 | 1012.6 |
| 20260507025420 | 5 | 0 | 3.2 | 3.2 | 0.00 | 0.00 | 0.00 | 77 | 1012.7 |
| 20260507024419 | 5 | 68 | 4.8 | 4.8 | 0.00 | 0.00 | 0.00 | 76 | 1012.6 |
| 20260507023420 | 6 | 0.0 | 0.0 | 0.00 | 0.00 | 0.00 | 76 | 1012.5 | |
| 20260507022420 | 6 | 0.0 | 0.0 | 0.00 | 0.00 | 0.00 | 77 | 1012.5 | |
| 20260507021420 | 6 | 0.0 | 0.0 | 0.00 | 0.00 | 0.00 | 77 | 1012.4 | |
| 20260507020419 | 6 | 135 | 3.2 | 4.8 | 0.00 | 0.00 | 0.00 | 77 | 1012.4 |
| 20260507015419 | 6 | 135 | 4.8 | 6.4 | 0.00 | 0.00 | 0.00 | 77 | 1012.3 |
| 20260507014419 | 6 | 135 | 4.8 | 6.4 | 0.00 | 0.00 | 0.00 | 76 | 1012.2 |
| 20260507013419 | 6 | 135 | 3.2 | 4.8 | 0.00 | 0.00 | 0.00 | 75 | 1012.1 |
| 20260507012419 | 6 | 135 | 4.8 | 4.8 | 0.00 | 0.00 | 0.00 | 76 | 1012.1 |
| 20260507011439 | 6 | 135 | 4.8 | 6.4 | 0.00 | 0.00 | 0.00 | 76 | 1012.1 |
| 20260507010419 | 6 | 135 | 6.4 | 8.0 | 0.00 | 0.00 | 0.00 | 76 | 1012.1 |
| 20260507005419 | 6 | 0.0 | 0.0 | 0.00 | 0.00 | 0.00 | 75 | 1011.9 | |
| 20260507004419 | 6 | 0.0 | 0.0 | 0.00 | 0.00 | 0.00 | 74 | 1012.0 | |
| 20260507003419 | 6 | 0.0 | 0.0 | 0.00 | 0.00 | 0.00 | 73 | 1011.9 | |
| 20260507002419 | 6 | 0.0 | 0.0 | 0.00 | 0.00 | 0.00 | 73 | 1011.9 | |
| 20260507001419 | 6 | 0.0 | 0.0 | 0.00 | 0.00 | 0.00 | 73 | 1011.9 | |
| 20260507000420 | 6 | 0.0 | 0.0 | 0.00 | 0.00 | 0.00 | 74 | 1011.8 | |
| 20260506235419 | 6 | 0.0 | 0.0 | 0.00 | 0.00 | 0.00 | 73 | 1011.8 | |
| 20260506234418 | 7 | 0 | 1.6 | 3.2 | 0.00 | 0.00 | 0.00 | 73 | 1011.7 |
| 20260506233418 | 7 | 293 | 6.4 | 8.0 | 0.00 | 0.00 | 0.00 | 73 | 1011.6 |
| 20260506232418 | 7 | 270 | 6.4 | 6.4 | 0.00 | 0.00 | 0.00 | 73 | 1011.7 |
| 20260506231419 | 7 | 293 | 8.0 | 8.0 | 0.00 | 0.00 | 0.00 | 72 | 1011.8 |
| 20260506230418 | 7 | 270 | 8.0 | 9.7 | 0.00 | 0.00 | 0.00 | 71 | 1011.7 |
| 20260506225438 | 6 | 315 | 9.7 | 11.3 | 0.00 | 0.00 | 0.00 | 71 | 1011.7 |
| 20260506224419 | 7 | 270 | 6.4 | 8.0 | 0.00 | 0.00 | 0.00 | 72 | 1011.7 |
| 20260506223418 | 7 | 315 | 6.4 | 8.0 | 0.00 | 0.00 | 0.00 | 72 | 1011.7 |
| 20260506222418 | 7 | 315 | 9.7 | 11.3 | 0.00 | 0.00 | 0.00 | 72 | 1011.7 |
| 20260506221418 | 7 | 315 | 12.9 | 16.1 | 0.00 | 0.00 | 0.00 | 72 | 1011.7 |
| 20260506220418 | 7 | 293 | 11.3 | 16.1 | 0.00 | 0.00 | 0.00 | 73 | 1011.6 |
| 20260506215419 | 7 | 315 | 11.3 | 12.9 | 0.00 | 0.00 | 0.00 | 71 | 1011.6 |
| 20260506214419 | 7 | 293 | 9.7 | 11.3 | 0.00 | 0.00 | 0.00 | 68 | 1011.6 |